Time;durP1;ratioP1;P1;durP2;ratioP2;P2;SDS_P1;SDS_P2;PMS_P1;PMS_P2;Temp;Humidity;BMP_temperature;BMP_pressure;BME280_temperature;BME280_humidity;BME280_pressure;Samples;Min_cycle;Max_cycle;Signal;HPM_P1;HPM_P2
2023/01/22 00:00:09;;;;;;;6.27;4.83;;;1.10;99.90;0.30;101667;;;;549341;261;24210;-81
2023/01/22 00:02:40;;;;;;;5.90;5.07;;;1.10;99.90;0.30;101673;;;;549061;262;24180;-80
2023/01/22 00:05:05;;;;;;;7.13;5.33;;;1.10;99.90;0.30;101666;;;;548570;262;24185;-76
2023/01/22 00:07:33;;;;;;;6.30;4.87;;;1.10;99.90;0.30;101664;;;;548775;262;24204;-76
2023/01/22 00:10:01;;;;;;;7.35;4.93;;;1.10;99.90;0.30;101666;;;;543238;262;35777;-75
2023/01/22 00:12:28;;;;;;;5.30;2.50;;;1.10;99.90;0.30;101675;;;;548246;262;24227;-75
2023/01/22 00:14:56;;;;;;;3.80;2.37;;;1.10;99.90;0.30;101669;;;;548191;262;24220;-75
2023/01/22 00:17:24;;;;;;;5.47;3.00;;;1.10;99.90;0.30;101665;;;;548157;262;24169;-75
2023/01/22 00:19:52;;;;;;;4.93;3.20;;;1.10;99.90;0.30;101675;;;;547869;262;24232;-75
2023/01/22 00:22:20;;;;;;;3.43;3.07;;;1.10;99.90;0.30;101675;;;;547822;262;24203;-75
2023/01/22 00:24:48;;;;;;;7.03;4.60;;;1.10;99.90;0.30;101678;;;;548288;262;24177;-76
2023/01/22 00:27:16;;;;;;;6.27;4.53;;;1.10;99.90;0.30;101673;;;;548434;262;24176;-77
2023/01/22 00:29:43;;;;;;;5.37;4.70;;;1.10;99.90;0.30;101669;;;;548919;262;24231;-76
2023/01/22 00:32:12;;;;;;;7.90;5.60;;;1.10;99.90;0.30;101679;;;;548540;262;24274;-78
2023/01/22 00:34:40;;;;;;;6.93;5.70;;;1.10;99.90;0.30;101674;;;;548773;262;24166;-76
2023/01/22 00:37:08;;;;;;;5.87;5.33;;;1.10;99.90;0.30;101673;;;;548363;262;24173;-74
2023/01/22 00:39:36;;;;;;;5.20;4.70;;;1.10;99.90;0.30;101674;;;;548534;262;24174;-75
2023/01/22 00:42:04;;;;;;;6.27;4.53;;;1.10;99.90;0.30;101669;;;;548084;262;24215;-75
2023/01/22 00:44:31;;;;;;;5.80;5.17;;;1.10;99.90;0.30;101674;;;;548499;262;24192;-83
2023/01/22 00:46:59;;;;;;;5.27;4.63;;;1.10;99.90;0.30;101687;;;;548315;262;24202;-77
2023/01/22 00:49:27;;;;;;;5.13;4.63;;;1.10;99.90;0.30;101673;;;;548309;262;24240;-77
2023/01/22 00:51:55;;;;;;;9.43;5.63;;;1.10;99.90;0.30;101670;;;;548141;262;24177;-76
2023/01/22 00:54:23;;;;;;;7.80;6.20;;;1.10;99.90;0.30;101687;;;;547898;262;24235;-76
2023/01/22 00:56:51;;;;;;;5.63;5.07;;;1.10;99.90;0.30;101681;;;;548296;258;24192;-77
2023/01/22 00:59:19;;;;;;;5.97;4.83;;;1.10;99.90;0.30;101671;;;;547836;262;24190;-75
2023/01/22 01:01:47;;;;;;;7.50;4.90;;;1.10;99.90;0.30;101685;;;;547953;262;24189;-75
2023/01/22 01:04:15;;;;;;;5.70;4.90;;;1.10;99.90;0.30;101690;;;;547677;262;24195;-77
2023/01/22 01:06:43;;;;;;;13.87;5.60;;;1.10;99.90;0.30;101682;;;;547865;262;24187;-75
2023/01/22 01:09:11;;;;;;;5.37;4.80;;;1.10;99.90;0.30;101682;;;;547464;262;24260;-75
2023/01/22 01:11:39;;;;;;;6.63;5.80;;;1.00;99.90;0.30;101691;;;;549232;261;24204;-75
2023/01/22 01:14:07;;;;;;;8.17;5.20;;;1.00;99.90;0.20;101688;;;;548346;262;24203;-76
2023/01/22 01:16:35;;;;;;;5.70;4.90;;;1.00;99.90;0.30;101704;;;;548560;262;24215;-75
2023/01/22 01:19:02;;;;;;;6.47;5.77;;;1.00;99.90;0.20;101695;;;;548111;262;24185;-77
2023/01/22 01:21:30;;;;;;;7.10;4.93;;;1.00;99.90;0.30;101689;;;;547924;262;24176;-76
2023/01/22 01:23:58;;;;;;;6.27;5.67;;;1.00;99.90;0.30;101694;;;;548411;262;24181;-75
2023/01/22 01:26:26;;;;;;;5.73;5.13;;;1.00;99.90;0.20;101692;;;;548646;262;24164;-77
2023/01/22 01:28:54;;;;;;;5.97;5.23;;;1.00;99.90;0.20;101690;;;;548305;262;24286;-75
2023/01/22 01:31:25;;;;;;;7.70;5.73;;;1.00;99.90;0.20;101693;;;;548511;262;24199;-76
2023/01/22 01:33:54;;;;;;;7.53;5.67;;;1.00;99.90;0.20;101691;;;;547850;262;24212;-74
2023/01/22 01:36:24;;;;;;;8.30;6.40;;;1.00;99.90;0.20;101688;;;;548303;262;24170;-75
2023/01/22 01:38:50;;;;;;;7.33;5.97;;;1.00;99.90;0.20;101687;;;;547967;262;24264;-75
2023/01/22 01:41:19;;;;;;;8.73;6.20;;;0.90;99.90;0.20;101682;;;;548684;262;24165;-77
2023/01/22 01:43:45;;;;;;;6.57;5.97;;;1.00;99.90;0.20;101693;;;;547506;262;24224;-78
2023/01/22 01:46:16;;;;;;;9.30;6.00;;;1.00;99.90;0.20;101691;;;;548790;262;24181;-75
2023/01/22 01:48:44;;;;;;;6.43;5.77;;;1.00;99.90;0.20;101686;;;;548289;261;24177;-77
2023/01/22 01:51:12;;;;;;;7.43;5.90;;;1.00;99.90;0.20;101699;;;;548902;262;24176;-76
2023/01/22 01:53:42;;;;;;;6.90;6.20;;;1.00;99.90;0.10;101696;;;;548523;262;24207;-81
2023/01/22 01:56:08;;;;;;;9.50;6.67;;;1.00;99.90;0.20;101700;;;;548501;262;24169;-76
2023/01/22 01:58:39;;;;;;;8.23;6.30;;;0.90;99.90;0.20;101693;;;;548228;258;24208;-83
2023/01/22 02:01:12;;;;;;;7.53;6.50;;;0.90;99.90;0.20;101700;;;;548391;262;24193;-82
2023/01/22 02:03:38;;;;;;;8.60;7.53;;;0.90;99.90;0.10;101698;;;;541981;262;24218;-75
2023/01/22 02:06:05;;;;;;;8.30;7.50;;;0.90;99.90;0.10;101718;;;;539238;262;26394;-75
2023/01/22 02:08:33;;;;;;;7.63;6.83;;;0.90;99.90;0.10;101706;;;;539379;262;24165;-74
2023/01/22 02:11:01;;;;;;;8.97;7.23;;;0.90;99.90;0.20;101707;;;;539188;262;24179;-76
2023/01/22 02:13:28;;;;;;;9.33;6.87;;;1.00;99.90;0.10;101698;;;;542402;262;24167;-77
2023/01/22 02:15:56;;;;;;;7.73;6.93;;;0.90;99.90;0.20;101698;;;;539571;262;24228;-76
2023/01/22 02:18:24;;;;;;;8.97;7.67;;;0.90;99.90;0.10;101700;;;;542607;262;24154;-80
2023/01/22 02:20:55;;;;;;;8.50;7.67;;;0.90;99.90;0.20;101700;;;;542844;260;24189;-80
2023/01/22 02:23:23;;;;;;;8.37;7.10;;;0.90;99.90;0.10;101702;;;;548521;262;24177;-75
2023/01/22 02:25:51;;;;;;;10.37;7.57;;;0.90;99.90;0.10;101704;;;;543819;262;24208;-76
2023/01/22 02:28:21;;;;;;;10.57;8.07;;;0.90;99.90;0.20;101706;;;;547687;262;25263;-76
2023/01/22 02:30:46;;;;;;;11.73;7.57;;;0.90;99.90;0.20;101708;;;;542671;262;24227;-76
2023/01/22 02:33:18;;;;;;;13.83;9.10;;;0.90;99.90;0.20;101701;;;;543032;262;24210;-75
2023/01/22 02:35:43;;;;;;;13.23;8.27;;;0.90;99.90;0.20;101709;;;;539909;262;25226;-77
2023/01/22 02:38:14;;;;;;;13.43;8.50;;;0.90;99.90;0.20;101706;;;;541864;262;24203;-78
2023/01/22 02:40:47;;;;;;;13.00;8.10;;;0.90;99.90;0.20;101691;;;;536732;260;24172;-78
2023/01/22 02:43:07;;;;;;;13.87;9.07;;;0.90;99.90;0.20;101708;;;;542676;262;24200;-75
2023/01/22 02:45:35;;;;;;;12.83;8.07;;;1.00;99.90;0.20;101702;;;;542999;262;24183;-75
2023/01/22 02:48:03;;;;;;;11.17;7.87;;;1.00;99.90;0.20;101714;;;;542929;262;25230;-75
2023/01/22 02:50:31;;;;;;;10.37;7.93;;;1.00;99.90;0.20;101713;;;;539892;262;24180;-77
2023/01/22 02:52:59;;;;;;;11.38;8.30;;;1.00;99.90;0.20;101711;;;;538088;262;46707;-74
2023/01/22 02:55:28;;;;;;;4.53;2.87;;;1.00;99.90;0.30;101719;;;;542808;262;24193;-74
2023/01/22 02:57:56;;;;;;;6.00;3.47;;;1.00;99.90;0.30;101714;;;;542267;262;24230;-76
2023/01/22 03:00:24;;;;;;;2.23;2.13;;;1.10;99.90;0.30;101712;;;;541985;262;24225;-75
2023/01/22 03:02:52;;;;;;;6.47;3.90;;;1.10;99.90;0.30;101722;;;;542190;262;24197;-75
2023/01/22 03:05:20;;;;;;;4.40;4.00;;;1.10;99.90;0.30;101715;;;;542524;262;24169;-75
2023/01/22 03:07:48;;;;;;;7.87;6.07;;;1.10;99.90;0.30;101729;;;;542331;262;24183;-74
2023/01/22 03:10:18;;;;;;;6.50;5.50;;;1.10;99.90;0.30;101719;;;;542316;262;24171;-77
2023/01/22 03:21:21;;;;;;;7.20;6.23;;;1.10;99.90;0.30;101727;;;;546962;261;24202;-76
2023/01/22 03:23:48;;;;;;;7.40;6.43;;;1.10;99.90;0.30;101723;;;;541608;262;24202;-76
2023/01/22 03:26:18;;;;;;;6.33;5.73;;;1.10;99.90;0.30;101731;;;;542223;262;24177;-74
2023/01/22 03:28:44;;;;;;;7.03;6.37;;;1.10;99.90;0.30;101723;;;;541926;262;24208;-75
2023/01/22 03:31:15;;;;;;;8.13;5.50;;;1.10;99.90;0.30;101729;;;;542184;262;24197;-75
2023/01/22 03:33:40;;;;;;;5.97;5.37;;;1.10;99.90;0.30;101721;;;;539889;262;24173;-74
2023/01/22 03:36:08;;;;;;;6.60;6.00;;;1.10;99.90;0.30;101724;;;;540087;262;24164;-75
2023/01/22 03:38:39;;;;;;;5.77;5.27;;;1.10;99.90;0.30;101726;;;;540046;262;24207;-75
2023/01/22 03:41:10;;;;;;;6.10;5.50;;;1.10;99.90;0.30;101732;;;;543178;262;24177;-77
2023/01/22 03:43:41;;;;;;;6.77;5.83;;;1.10;99.90;0.30;101720;;;;539703;262;24205;-76
2023/01/22 03:46:06;;;;;;;6.60;5.83;;;1.00;99.90;0.40;101716;;;;542432;258;24250;-75
2023/01/22 03:48:33;;;;;;;6.30;5.17;;;1.10;99.90;0.40;101726;;;;541792;262;24165;-78
2023/01/22 03:51:05;;;;;;;7.93;5.03;;;1.10;99.90;0.30;101724;;;;542498;262;24273;-76
2023/01/22 03:53:35;;;;;;;5.60;5.10;;;1.10;99.90;0.40;101732;;;;539433;262;24277;-76
2023/01/22 03:56:03;;;;;;;7.03;5.80;;;1.10;99.90;0.40;101727;;;;542137;262;24190;-77
2023/01/22 03:58:28;;;;;;;9.30;5.43;;;1.20;99.90;0.40;101723;;;;540988;262;24226;-77
2023/01/22 04:00:59;;;;;;;5.93;5.43;;;1.10;99.90;0.40;101722;;;;537507;262;24164;-76
2023/01/22 04:03:27;;;;;;;8.13;5.93;;;1.10;99.90;0.40;101724;;;;539367;262;24165;-76
2023/01/22 04:05:58;;;;;;;7.17;6.47;;;1.10;99.90;0.40;101731;;;;547036;262;24182;-76
2023/01/22 04:08:23;;;;;;;7.17;6.47;;;1.10;99.90;0.30;101730;;;;541818;262;24252;-75
2023/01/22 04:10:51;;;;;;;8.07;6.40;;;1.10;99.90;0.40;101737;;;;541710;262;24154;-75
2023/01/22 04:13:19;;;;;;;7.33;5.70;;;1.10;99.90;0.40;101741;;;;541850;262;24204;-74
2023/01/22 04:15:47;;;;;;;7.33;6.20;;;1.10;99.90;0.40;101746;;;;541721;262;24170;-76
2023/01/22 04:18:15;;;;;;;7.77;5.40;;;1.10;99.90;0.40;101747;;;;542630;262;24160;-76
2023/01/22 04:20:46;;;;;;;5.63;5.13;;;1.10;99.90;0.40;101742;;;;542620;262;24219;-76
2023/01/22 04:23:14;;;;;;;7.90;5.70;;;1.20;99.90;0.40;101737;;;;542311;262;24229;-75
2023/01/22 04:25:39;;;;;;;7.10;5.77;;;1.20;99.90;0.40;101740;;;;539420;262;24287;-75
2023/01/22 04:28:10;;;;;;;7.07;5.33;;;1.10;99.90;0.40;101747;;;;542509;262;24255;-78
2023/01/22 04:30:35;;;;;;;7.37;6.67;;;1.20;99.90;0.40;101744;;;;542589;262;24228;-76
2023/01/22 04:33:02;;;;;;;6.37;5.47;;;1.10;99.90;0.30;101753;;;;542706;262;24198;-76
2023/01/22 04:35:33;;;;;;;6.33;5.83;;;1.10;99.90;0.30;101746;;;;540026;262;24168;-75
2023/01/22 04:37:59;;;;;;;6.97;6.37;;;1.10;99.90;0.30;101750;;;;539408;262;24221;-75
2023/01/22 04:40:27;;;;;;;6.67;6.07;;;1.10;99.90;0.30;101741;;;;542635;262;24172;-76
2023/01/22 04:42:55;;;;;;;5.97;5.47;;;1.10;99.90;0.30;101742;;;;540999;262;24167;-75
2023/01/22 04:45:23;;;;;;;6.77;6.07;;;1.00;99.90;0.20;101746;;;;539940;262;24156;-76
2023/01/22 04:47:51;;;;;;;6.43;5.83;;;1.00;99.90;0.20;101753;;;;543151;262;24162;-76
2023/01/22 04:50:22;;;;;;;6.73;6.13;;;1.00;99.90;0.30;101757;;;;542812;262;24184;-77
2023/01/22 04:52:50;;;;;;;6.77;6.07;;;1.00;99.90;0.30;101749;;;;542830;262;24195;-77
2023/01/22 04:55:18;;;;;;;9.37;6.20;;;1.00;99.90;0.30;101755;;;;542637;262;24182;-76
2023/01/22 04:57:46;;;;;;;7.13;6.07;;;1.00;99.90;0.30;101762;;;;542469;262;24177;-77
2023/01/22 05:00:13;;;;;;;6.53;5.57;;;1.00;99.90;0.30;101776;;;;542576;262;24154;-78
2023/01/22 05:02:41;;;;;;;5.37;4.87;;;1.00;99.90;0.30;101774;;;;541529;262;24178;-77
2023/01/22 05:05:10;;;;;;;7.17;6.47;;;1.00;99.90;0.20;101768;;;;542393;262;24209;-77
2023/01/22 05:07:38;;;;;;;7.37;6.40;;;1.00;99.90;0.30;101764;;;;542371;262;26324;-78
2023/01/22 05:10:06;;;;;;;6.90;5.90;;;1.00;99.90;0.30;101786;;;;541966;262;24182;-77
2023/01/22 05:12:34;;;;;;;6.73;6.03;;;1.00;99.90;0.20;101773;;;;539190;262;24172;-76
2023/01/22 05:15:06;;;;;;;7.53;6.73;;;1.00;99.90;0.30;101779;;;;542204;262;24160;-76
2023/01/22 05:17:31;;;;;;;6.40;5.77;;;1.00;99.90;0.30;101782;;;;542255;262;24242;-76
2023/01/22 05:19:59;;;;;;;7.43;6.73;;;1.10;99.90;0.30;101795;;;;542287;262;24274;-77
2023/01/22 05:22:27;;;;;;;6.30;5.43;;;1.00;99.90;0.30;101789;;;;542425;262;24172;-77
2023/01/22 05:24:54;;;;;;;6.20;5.60;;;1.10;99.90;0.30;101790;;;;542443;262;24208;-77
2023/01/22 05:27:22;;;;;;;6.40;5.73;;;1.00;99.90;0.30;101795;;;;539394;262;24165;-81
2023/01/22 05:29:53;;;;;;;6.77;5.83;;;1.00;99.90;0.30;101788;;;;542528;262;24209;-78
2023/01/22 05:32:19;;;;;;;8.83;6.73;;;1.00;99.90;0.20;101785;;;;542301;262;24175;-78
2023/01/22 05:34:47;;;;;;;8.27;7.30;;;1.00;99.90;0.20;101783;;;;542617;262;24181;-78
2023/01/22 05:37:15;;;;;;;7.73;6.80;;;1.00;99.90;0.30;101785;;;;542500;262;24163;-78
2023/01/22 05:39:43;;;;;;;8.13;6.63;;;1.00;99.90;0.20;101791;;;;542223;262;24224;-77
2023/01/22 05:42:14;;;;;;;8.23;7.00;;;1.00;99.90;0.20;101793;;;;542200;262;24246;-77
2023/01/22 05:44:41;;;;;;;9.83;7.17;;;1.00;99.90;0.30;101799;;;;542024;262;24184;-77
2023/01/22 05:47:09;;;;;;;8.57;6.30;;;1.00;99.90;0.20;101800;;;;547298;262;24187;-76
2023/01/22 05:49:38;;;;;;;7.93;6.90;;;1.00;99.90;0.20;101802;;;;547320;262;24191;-77
2023/01/22 05:52:09;;;;;;;8.20;6.70;;;1.00;99.90;0.20;101802;;;;542568;262;24168;-76
2023/01/22 05:54:33;;;;;;;9.80;6.93;;;1.00;99.90;0.20;101804;;;;542225;262;24201;-76
2023/01/22 05:57:01;;;;;;;7.53;6.63;;;1.00;99.90;0.30;101807;;;;543434;258;24190;-77
2023/01/22 05:59:29;;;;;;;7.07;6.37;;;1.00;99.90;0.30;101809;;;;543235;262;24383;-77
2023/01/22 06:01:57;;;;;;;8.10;6.97;;;1.00;99.90;0.30;101809;;;;542893;262;24183;-76
2023/01/22 06:04:25;;;;;;;6.90;5.67;;;1.10;99.90;0.30;101815;;;;542989;262;24183;-77
2023/01/22 06:06:54;;;;;;;9.30;6.70;;;1.00;99.90;0.30;101818;;;;536865;262;24186;-77
2023/01/22 06:09:22;;;;;;;5.93;5.33;;;1.00;99.90;0.30;101805;;;;542420;262;24195;-77
2023/01/22 06:11:53;;;;;;;6.93;6.23;;;1.00;99.90;0.30;101818;;;;542820;262;24157;-76
2023/01/22 06:14:17;;;;;;;6.77;5.80;;;1.10;99.90;0.30;101822;;;;542557;262;24172;-77
2023/01/22 06:16:45;;;;;;;6.00;5.43;;;1.10;99.90;0.30;101815;;;;536679;262;24161;-76
2023/01/22 06:19:13;;;;;;;8.67;6.87;;;1.10;99.90;0.30;101821;;;;542442;262;24153;-76
2023/01/22 06:21:42;;;;;;;9.00;6.53;;;1.10;99.90;0.30;101819;;;;542387;262;24208;-77
2023/01/22 06:24:10;;;;;;;8.23;7.00;;;1.10;99.90;0.30;101832;;;;542434;262;24169;-76
2023/01/22 06:26:38;;;;;;;7.37;6.13;;;1.10;99.90;0.20;101834;;;;542392;262;24168;-75
2023/01/22 06:29:06;;;;;;;9.23;7.13;;;1.10;99.90;0.30;101831;;;;547097;260;24195;-76
2023/01/22 06:31:33;;;;;;;7.00;6.30;;;1.10;99.90;0.30;101843;;;;542385;262;24176;-75
2023/01/22 06:34:04;;;;;;;6.80;6.10;;;1.10;99.90;0.20;101833;;;;542200;262;24218;-76
2023/01/22 06:36:29;;;;;;;7.27;6.57;;;1.00;99.90;0.20;101829;;;;542107;262;24177;-76
2023/01/22 06:38:57;;;;;;;9.10;7.40;;;1.00;99.90;0.20;101839;;;;542153;262;24225;-75
2023/01/22 06:41:25;;;;;;;8.23;7.43;;;1.00;99.90;0.20;101835;;;;542233;262;24202;-76
2023/01/22 06:43:53;;;;;;;8.67;7.30;;;0.90;99.90;0.10;101849;;;;542198;262;24183;-76
2023/01/22 06:46:21;;;;;;;11.40;6.90;;;0.90;99.90;0.20;101849;;;;542254;262;24194;-76
2023/01/22 06:48:50;;;;;;;9.43;8.40;;;0.90;99.90;0.20;101847;;;;546612;262;24166;-76
2023/01/22 06:51:17;;;;;;;9.27;6.73;;;0.90;99.90;0.20;101861;;;;542063;262;24183;-78
2023/01/22 06:53:46;;;;;;;8.50;6.83;;;0.90;99.90;0.20;101860;;;;542183;262;24141;-78
2023/01/22 06:56:14;;;;;;;9.30;8.40;;;0.90;99.90;0.20;101872;;;;542092;262;24172;-81
2023/01/22 06:58:42;;;;;;;9.37;6.57;;;0.90;99.90;0.20;101874;;;;542181;262;24248;-81
2023/01/22 07:01:14;;;;;;;8.50;7.60;;;0.90;99.90;0.20;101881;;;;542114;262;24165;-81
2023/01/22 07:03:38;;;;;;;8.37;6.73;;;0.90;99.90;0.20;101884;;;;546201;262;24170;-79
2023/01/22 07:06:08;;;;;;;9.00;6.57;;;0.90;99.90;0.20;101886;;;;542428;262;24172;-82
2023/01/22 07:08:35;;;;;;;10.07;7.33;;;0.90;99.90;0.20;101885;;;;540161;262;26378;-82
2023/01/22 07:11:06;;;;;;;9.50;7.00;;;0.90;99.90;0.10;101883;;;;543200;262;24177;-79
2023/01/22 07:13:31;;;;;;;8.37;7.13;;;0.90;99.90;0.10;101891;;;;543641;262;24132;-77
2023/01/22 07:16:06;;;;;;;9.00;6.77;;;0.90;99.90;0.10;101896;;;;540898;262;24165;-78
2023/01/22 07:18:31;;;;;;;8.17;7.30;;;0.90;99.90;0.10;101895;;;;540379;262;24190;-76
2023/01/22 07:21:08;;;;;;;8.00;6.60;;;0.90;99.90;0.10;101895;;;;543720;262;24200;-77
2023/01/22 07:23:33;;;;;;;9.23;7.13;;;0.90;99.90;0.20;101902;;;;543583;262;24216;-80
2023/01/22 07:26:01;;;;;;;9.17;7.17;;;0.90;99.90;0.20;101904;;;;543526;262;24175;-81
2023/01/22 07:28:29;;;;;;;6.80;6.20;;;1.00;99.90;0.20;101909;;;;543376;262;24172;-79
2023/01/22 07:30:57;;;;;;;6.87;5.73;;;0.90;99.90;0.20;101915;;;;543440;262;24179;-78
2023/01/22 07:33:25;;;;;;;7.63;6.90;;;1.00;99.90;0.20;101912;;;;543473;262;24206;-81
2023/01/22 07:35:59;;;;;;;8.57;7.70;;;0.90;99.90;0.20;101921;;;;536994;262;24207;-81
2023/01/22 07:38:24;;;;;;;9.10;6.77;;;0.90;99.90;0.20;101923;;;;540380;262;24193;-82
2023/01/22 07:40:52;;;;;;;10.97;7.37;;;0.90;99.90;0.20;101933;;;;540307;262;24204;-80
2023/01/22 07:43:20;;;;;;;8.80;6.97;;;0.90;99.90;0.20;101923;;;;543421;262;24157;-81
2023/01/22 07:45:48;;;;;;;10.33;7.90;;;1.00;99.90;0.20;101921;;;;543216;262;24216;-78
2023/01/22 07:48:16;;;;;;;10.30;7.03;;;1.00;99.90;0.30;101933;;;;543327;262;24183;-78
2023/01/22 07:50:44;;;;;;;8.23;6.10;;;1.00;99.90;0.30;101929;;;;543151;262;24200;-78
2023/01/22 07:53:12;;;;;;;7.00;5.40;;;1.00;99.90;0.30;101943;;;;542958;262;24232;-76
2023/01/22 07:55:42;;;;;;;8.33;6.67;;;1.10;99.90;0.30;101933;;;;543027;262;24212;-77
2023/01/22 07:58:07;;;;;;;6.30;5.70;;;1.10;99.90;0.30;101939;;;;539852;262;24188;-75
2023/01/22 08:00:35;;;;;;;7.97;7.17;;;1.10;99.90;0.40;101945;;;;542874;262;24224;-76
2023/01/22 08:03:09;;;;;;;8.77;6.20;;;1.10;99.90;0.40;101946;;;;542021;262;24213;-81
2023/01/22 08:05:34;;;;;;;12.27;6.60;;;1.10;99.90;0.30;101947;;;;547312;262;24172;-81
2023/01/22 08:08:02;;;;;;;8.83;7.27;;;1.10;99.90;0.30;101952;;;;543177;262;24150;-80
2023/01/22 08:10:33;;;;;;;8.83;7.23;;;1.10;99.90;0.30;101952;;;;543243;262;24181;-76
2023/01/22 08:12:58;;;;;;;7.47;6.63;;;1.10;99.90;0.30;101955;;;;542839;262;24300;-78
2023/01/22 08:15:26;;;;;;;8.93;6.03;;;1.10;99.90;0.30;101954;;;;548110;262;24168;-75
2023/01/22 08:17:54;;;;;;;6.80;6.17;;;1.10;99.90;0.30;101958;;;;543206;262;24220;-78
2023/01/22 08:20:22;;;;;;;6.10;4.97;;;1.10;99.90;0.40;101958;;;;544263;262;24172;-77
2023/01/22 08:22:50;;;;;;;9.13;6.67;;;1.10;99.90;0.30;101956;;;;543781;262;24169;-77
2023/01/22 08:25:19;;;;;;;8.43;7.20;;;1.10;99.90;0.40;101971;;;;536486;262;24176;-76
2023/01/22 08:27:47;;;;;;;7.40;6.43;;;1.10;99.90;0.40;101962;;;;542929;262;24170;-77
2023/01/22 08:30:15;;;;;;;6.93;5.97;;;1.10;99.90;0.40;101957;;;;543264;262;24169;-81
2023/01/22 08:32:44;;;;;;;6.00;5.40;;;1.10;99.90;0.40;101962;;;;543563;262;24165;-76
2023/01/22 08:35:15;;;;;;;6.77;6.07;;;1.20;99.90;0.40;101964;;;;541919;261;24176;-76
2023/01/22 08:37:42;;;;;;;8.60;5.57;;;1.20;99.90;0.40;101968;;;;542712;262;24165;-76
2023/01/22 08:40:08;;;;;;;6.30;5.70;;;1.20;99.90;0.50;101964;;;;539375;262;24185;-76
2023/01/22 08:42:38;;;;;;;9.23;7.00;;;1.20;99.90;0.40;101967;;;;541927;259;24201;-76
2023/01/22 08:45:06;;;;;;;8.90;5.47;;;1.20;99.90;0.40;101974;;;;542705;262;24188;-77
2023/01/22 08:47:31;;;;;;;6.63;5.93;;;1.20;99.90;0.40;101970;;;;539446;262;24213;-78
2023/01/22 08:50:02;;;;;;;6.63;4.97;;;1.20;99.90;0.40;101979;;;;542641;262;24167;-77
2023/01/22 08:52:27;;;;;;;6.70;6.00;;;1.20;99.90;0.40;101966;;;;542175;262;24171;-77
2023/01/22 08:54:54;;;;;;;8.63;6.03;;;1.20;99.90;0.40;101981;;;;542565;262;24172;-78
2023/01/22 08:57:22;;;;;;;6.63;5.80;;;1.20;99.90;0.40;101973;;;;542273;262;24170;-77
2023/01/22 08:59:50;;;;;;;6.43;5.70;;;1.20;99.90;0.40;101979;;;;542108;262;24176;-80
2023/01/22 09:02:18;;;;;;;6.00;5.40;;;1.20;99.90;0.40;101981;;;;542082;262;24225;-80
2023/01/22 09:04:46;;;;;;;6.50;5.23;;;1.20;99.90;0.40;101976;;;;541968;262;24205;-79
2023/01/22 09:07:14;;;;;;;8.57;5.77;;;1.20;99.90;0.40;101990;;;;539056;262;24265;-79
2023/01/22 09:09:42;;;;;;;8.57;5.23;;;1.20;99.90;0.40;101987;;;;541994;262;24169;-78
2023/01/22 09:12:10;;;;;;;6.43;5.83;;;1.20;99.90;0.30;101976;;;;542080;262;24170;-81
2023/01/22 09:14:38;;;;;;;6.23;5.63;;;1.10;99.90;0.30;101993;;;;542174;262;24188;-81
2023/01/22 09:17:06;;;;;;;5.97;4.93;;;1.10;99.90;0.30;101996;;;;542488;262;24216;-82
2023/01/22 09:19:37;;;;;;;8.63;6.63;;;1.10;99.90;0.30;101997;;;;542464;262;24199;-77
2023/01/22 09:22:05;;;;;;;6.53;5.83;;;1.10;99.90;0.30;102008;;;;546619;262;24245;-79
2023/01/22 09:24:31;;;;;;;7.37;5.90;;;1.10;99.90;0.30;102009;;;;542280;262;24180;-81
2023/01/22 09:27:03;;;;;;;7.23;6.50;;;1.10;99.90;0.40;102000;;;;549121;257;24147;-82
2023/01/22 09:29:27;;;;;;;7.43;5.77;;;1.20;99.90;0.50;102009;;;;538780;262;24210;-79
2023/01/22 09:31:58;;;;;;;6.63;4.07;;;1.20;99.90;0.50;102000;;;;543307;262;24274;-75
2023/01/22 09:34:23;;;;;;;5.57;2.70;;;1.30;99.90;0.50;102002;;;;543068;262;24176;-76
2023/01/22 09:36:54;;;;;;;5.33;3.77;;;1.30;99.90;0.50;102005;;;;542982;262;24173;-76
2023/01/22 09:39:23;;;;;;;8.47;4.10;;;1.30;99.90;0.50;101997;;;;542825;262;24189;-77
2023/01/22 09:41:47;;;;;;;4.30;3.30;;;1.30;99.90;0.40;101998;;;;542583;262;24177;-75
2023/01/22 09:44:18;;;;;;;6.33;4.43;;;1.20;99.90;0.40;101993;;;;539747;262;24157;-78
2023/01/22 09:46:49;;;;;;;6.33;4.27;;;1.20;99.90;0.40;101994;;;;539895;262;24223;-76
2023/01/22 09:49:17;;;;;;;4.27;3.07;;;1.20;99.90;0.40;102002;;;;541654;262;24195;-77
2023/01/22 09:51:55;;;;;;;10.10;4.03;;;1.20;99.90;0.40;101997;;;;539698;262;24173;-77
2023/01/22 09:54:25;;;;;;;9.80;4.67;;;1.20;99.90;0.50;102008;;;;542595;262;24183;-76
2023/01/22 09:56:54;;;;;;;9.07;4.53;;;1.20;99.90;0.50;102008;;;;542781;258;24237;-76
2023/01/22 09:59:27;;;;;;;6.73;4.87;;;1.20;99.90;0.50;102001;;;;540130;262;24173;-77
2023/01/22 10:01:56;;;;;;;6.13;3.80;;;1.30;99.90;0.60;102007;;;;542255;262;24172;-75
2023/01/22 10:04:39;;;;;;;3.27;2.70;;;1.30;99.90;0.60;102020;;;;540354;262;24174;-76
2023/01/22 10:07:07;;;;;;;5.47;4.30;;;1.30;99.90;0.60;102015;;;;542418;262;24187;-77
2023/01/22 10:09:38;;;;;;;4.57;3.33;;;1.30;99.90;0.60;102012;;;;539356;262;24166;-75
2023/01/22 10:12:03;;;;;;;4.83;3.63;;;1.30;99.90;0.50;102016;;;;541990;262;24170;-76
2023/01/22 10:14:31;;;;;;;4.83;3.93;;;1.30;99.90;0.60;102012;;;;539242;262;24248;-77
2023/01/22 10:17:02;;;;;;;3.47;3.17;;;1.40;99.90;0.70;102010;;;;542142;262;24181;-77
2023/01/22 10:19:27;;;;;;;6.03;4.30;;;1.40;99.90;0.70;102018;;;;546658;262;24224;-76
2023/01/22 10:22:01;;;;;;;3.03;2.60;;;1.50;99.90;0.70;102018;;;;538992;262;24169;-77
2023/01/22 10:24:29;;;;;;;11.33;4.97;;;1.50;99.90;0.80;102010;;;;540816;262;24285;-76
2023/01/22 10:26:58;;;;;;;4.83;3.90;;;1.50;99.90;0.80;102014;;;;542158;262;24207;-76
2023/01/22 10:29:25;;;;;;;5.80;4.57;;;1.50;99.90;0.80;102012;;;;542137;262;24190;-76
2023/01/22 10:32:03;;;;;;;10.57;5.10;;;1.60;99.90;0.90;102016;;;;537951;262;24188;-75
2023/01/22 10:34:35;;;;;;;5.83;4.90;;;1.70;99.90;0.90;102012;;;;539848;262;24184;-76
2023/01/22 10:37:02;;;;;;;2.90;2.10;;;1.60;99.90;1.00;102013;;;;541547;262;24229;-75
2023/01/22 10:39:42;;;;;;;5.77;4.00;;;1.70;99.90;1.00;102011;;;;541597;262;25226;-76
2023/01/22 10:42:07;;;;;;;5.10;3.57;;;1.80;99.90;0.90;102010;;;;542101;260;24260;-75
2023/01/22 10:44:35;;;;;;;4.77;3.27;;;1.70;99.90;0.90;102011;;;;540429;262;24165;-75
2023/01/22 10:47:11;;;;;;;4.43;3.00;;;1.70;99.90;0.90;102010;;;;540118;262;24179;-75
2023/01/22 10:49:37;;;;;;;5.43;4.03;;;1.70;99.90;1.00;102005;;;;539539;262;24208;-76
2023/01/22 10:52:06;;;;;;;4.33;3.53;;;1.80;99.90;1.10;102010;;;;542739;262;24173;-76
2023/01/22 10:54:42;;;;;;;4.63;3.93;;;1.80;99.90;1.10;102013;;;;538965;262;24182;-76
2023/01/22 10:57:22;;;;;;;5.43;4.50;;;1.90;99.90;1.10;102016;;;;539048;258;24185;-76
2023/01/22 11:00:15;;;;;;;7.60;5.10;;;2.00;99.90;1.20;102014;;;;542306;262;24167;-75
2023/01/22 11:02:43;;;;;;;7.13;5.13;;;1.90;99.90;1.10;102024;;;;539544;260;24165;-75
2023/01/22 11:05:20;;;;;;;4.67;3.77;;;1.90;99.90;1.10;102023;;;;542205;262;24187;-76
2023/01/22 11:07:47;;;;;;;6.13;4.00;;;1.90;99.90;1.20;102019;;;;539206;262;24219;-76
2023/01/22 11:10:30;;;;;;;7.37;4.60;;;1.90;99.90;1.20;102023;;;;539479;262;24169;-77
2023/01/22 11:13:07;;;;;;;7.47;4.67;;;1.90;99.90;1.20;102020;;;;539183;262;24249;-75
2023/01/22 11:15:56;;;;;;;8.47;3.57;;;2.00;99.90;1.20;102019;;;;546447;259;24191;-76
2023/01/22 11:18:39;;;;;;;7.90;4.77;;;1.90;99.90;1.20;102022;;;;539737;262;24178;-76
2023/01/22 11:21:15;;;;;;;7.87;4.27;;;1.90;99.90;1.20;102016;;;;539770;261;24231;-74
2023/01/22 11:23:58;;;;;;;3.23;2.63;;;1.90;99.90;1.20;102017;;;;542947;262;24302;-76
2023/01/22 11:26:47;;;;;;;5.10;3.63;;;1.90;99.90;1.20;102012;;;;539837;262;24158;-77
2023/01/22 11:29:33;;;;;;;12.40;5.00;;;1.90;99.90;1.20;102017;;;;541741;262;24154;-76
2023/01/22 11:32:29;;;;;;;5.17;4.07;;;1.90;99.90;1.20;102020;;;;541684;262;24167;-77
2023/01/22 11:35:11;;;;;;;5.57;4.33;;;1.90;99.90;1.30;102020;;;;539500;262;24196;-74
2023/01/22 11:37:48;;;;;;;8.87;3.83;;;2.00;99.90;1.30;102020;;;;542402;262;24187;-75
2023/01/22 11:40:30;;;;;;;6.67;4.03;;;2.00;99.90;1.30;102013;;;;542513;262;24218;-74